createdAt,value
2018-09-01T00:01:15.928Z,27.57
2018-09-01T00:03:45.399Z,27.30
2018-09-01T00:06:15.496Z,28.63
2018-09-01T00:08:45.185Z,30.13
2018-09-01T00:11:14.504Z,29.37
2018-09-01T00:13:44.241Z,26.97
2018-09-01T00:16:15.171Z,29.33
2018-09-01T00:18:46.089Z,31.87
2018-09-01T00:21:15.849Z,30.17
2018-09-01T00:23:46.470Z,29.30
2018-09-01T00:26:17.145Z,26.00
2018-09-01T00:28:47.271Z,28.17
2018-09-01T00:31:16.731Z,28.40
2018-09-01T00:33:46.924Z,30.43
2018-09-01T00:36:17.049Z,27.97
2018-09-01T00:38:52.250Z,24.63
2018-09-01T00:41:21.807Z,28.47
2018-09-01T00:43:51.652Z,24.87
2018-09-01T00:46:21.844Z,27.20
2018-09-01T00:48:51.702Z,26.57
2018-09-01T00:51:22.254Z,27.30
2018-09-01T00:53:52.634Z,26.80
2018-09-01T00:56:22.610Z,25.97
2018-09-01T00:58:54.797Z,27.73
2018-09-01T01:01:25.212Z,28.93
2018-09-01T01:03:55.068Z,26.70
2018-09-01T01:06:25.138Z,25.70
2018-09-01T01:09:01.173Z,24.07
2018-09-01T01:11:31.149Z,27.93
2018-09-01T01:14:01.019Z,28.67
2018-09-01T01:16:39.411Z,30.20
2018-09-01T01:22:25.550Z,28.13
2018-09-01T01:24:56.464Z,28.20
2018-09-01T01:27:29.081Z,28.03
2018-09-01T01:29:59.986Z,27.50
2018-09-01T01:32:31.730Z,28.07
2018-09-01T01:35:05.264Z,26.30
2018-09-01T01:37:36.284Z,29.67
2018-09-01T01:40:06.805Z,27.37
2018-09-01T01:42:36.944Z,26.10
2018-09-01T01:45:06.747Z,29.43
2018-09-01T01:47:42.088Z,28.73
2018-09-01T01:50:12.411Z,31.27
2018-09-01T01:52:42.121Z,31.70
2018-09-01T01:55:11.944Z,27.87
2018-09-01T01:57:48.306Z,30.07
2018-09-01T02:00:18.731Z,31.43
2018-09-01T02:02:49.390Z,31.53
2018-09-01T02:05:22.082Z,30.87
2018-09-01T02:07:52.100Z,28.77
2018-09-01T02:10:22.374Z,28.70
2018-09-01T02:12:52.481Z,28.17
2018-09-01T02:15:31.843Z,28.03
2018-09-01T02:18:01.626Z,28.70
2018-09-01T02:20:31.421Z,28.90
2018-09-01T02:23:01.506Z,27.47
2018-09-01T02:25:31.446Z,28.13
2018-09-01T02:28:01.220Z,30.47
2018-09-01T02:30:31.297Z,29.13
2018-09-01T02:33:01.260Z,31.63
2018-09-01T02:38:09.568Z,26.93
2018-09-01T02:40:40.995Z,30.30
2018-09-01T02:43:13.183Z,35.10
2018-09-01T02:45:44.330Z,31.37
2018-09-01T02:48:16.928Z,33.27
2018-09-01T02:50:48.592Z,30.00
2018-09-01T02:53:21.424Z,28.83
2018-09-01T02:55:53.091Z,28.67
2018-09-01T02:58:24.421Z,31.17
2018-09-01T03:01:00.596Z,29.70
2018-09-01T03:03:30.182Z,30.30
2018-09-01T03:06:01.628Z,36.20
2018-09-01T03:08:31.372Z,29.43
2018-09-01T03:11:01.207Z,28.47
2018-09-01T03:13:31.149Z,33.77
2018-09-01T03:16:00.962Z,28.93
2018-09-01T03:18:30.691Z,29.70
2018-09-01T03:21:01.374Z,30.00
2018-09-01T03:23:31.523Z,28.83
2018-09-01T03:26:01.415Z,27.40
2018-09-01T03:28:31.325Z,29.67
2018-09-01T03:31:00.999Z,29.17
2018-09-01T03:33:31.672Z,28.77
2018-09-01T03:36:02.202Z,27.73
2018-09-01T03:38:31.797Z,31.87
2018-09-01T03:41:01.816Z,30.93
2018-09-01T03:43:31.388Z,28.20
2018-09-01T03:46:00.922Z,31.53
2018-09-01T03:48:30.525Z,28.23
2018-09-01T03:51:00.544Z,31.77
2018-09-01T03:53:30.500Z,28.23
2018-09-01T03:56:00.742Z,29.87
2018-09-01T03:58:30.618Z,26.97
2018-09-01T04:01:02.541Z,29.03
2018-09-01T04:03:32.829Z,26.70
2018-09-01T04:06:02.772Z,27.40
2018-09-01T04:08:32.609Z,24.70
2018-09-01T04:11:04.872Z,30.20
2018-09-01T04:13:35.201Z,25.93
2018-09-01T04:16:04.960Z,27.67
2018-09-01T04:18:35.847Z,30.07
2018-09-01T04:21:06.227Z,31.57
2018-09-01T04:23:36.226Z,28.63
2018-09-01T04:26:04.684Z,28.43
2018-09-01T04:28:33.461Z,29.67
2018-09-01T04:31:02.153Z,28.30
2018-09-01T04:33:33.067Z,30.23
2018-09-01T04:36:01.540Z,28.73
2018-09-01T04:38:29.969Z,31.73
2018-09-01T04:40:59.892Z,32.13
2018-09-01T04:43:28.446Z,26.37
2018-09-01T04:45:56.907Z,24.27
2018-09-01T04:48:25.359Z,23.70
2018-09-01T04:50:53.756Z,24.17
2018-09-01T04:53:22.173Z,24.33
2018-09-01T04:55:51.271Z,22.63
2018-09-01T04:58:19.805Z,20.67
2018-09-01T05:00:48.331Z,20.17
2018-09-01T05:03:16.941Z,21.63
2018-09-01T05:05:46.224Z,16.70
2018-09-01T05:08:16.575Z,17.43
2018-09-01T05:11:05.583Z,19.90
2018-09-01T05:13:34.065Z,18.87
2018-09-01T05:19:21.873Z,18.57
2018-09-01T05:21:54.973Z,18.70
2018-09-01T05:24:30.916Z,16.27
2018-09-01T05:27:01.283Z,18.37
2018-09-01T05:29:32.546Z,16.07
2018-09-01T05:32:03.206Z,15.23
2018-09-01T05:34:35.031Z,19.97
2018-09-01T05:37:06.393Z,14.97
2018-09-01T05:39:37.764Z,16.97
2018-09-01T05:42:07.521Z,16.17
2018-09-01T05:44:40.084Z,16.47
2018-09-01T05:47:14.302Z,15.33
2018-09-01T05:49:44.842Z,16.87
2018-09-01T05:52:15.675Z,19.73
2018-09-01T05:54:46.096Z,20.40
2018-09-01T05:57:16.173Z,18.20
2018-09-01T05:59:46.896Z,17.30
2018-09-01T06:02:16.706Z,20.80
2018-09-01T06:04:46.739Z,21.23
2018-09-01T06:07:18.954Z,18.20
2018-09-01T06:09:48.984Z,22.53
2018-09-01T06:12:19.385Z,21.80
2018-09-01T06:14:51.418Z,21.53
2018-09-01T06:17:22.825Z,24.33
2018-09-01T06:19:53.672Z,21.20
2018-09-01T06:22:24.117Z,20.13
2018-09-01T06:24:54.579Z,21.80
2018-09-01T06:27:30.073Z,29.33
2018-09-01T06:30:00.580Z,28.87
2018-09-01T06:32:31.294Z,23.47
2018-09-01T06:35:01.965Z,23.80
2018-09-01T06:37:33.571Z,21.07
2018-09-01T06:40:04.288Z,22.60
2018-09-01T06:42:34.757Z,23.27
2018-09-01T06:45:05.026Z,20.87
2018-09-01T06:47:34.985Z,20.40
2018-09-01T06:50:06.447Z,20.73
2018-09-01T06:52:36.873Z,20.73
2018-09-01T06:55:07.551Z,21.57
2018-09-01T06:57:42.930Z,21.47
2018-09-01T07:00:24.408Z,19.43
2018-09-01T07:02:56.453Z,22.80
2018-09-01T07:05:27.202Z,20.37
2018-09-01T07:08:02.237Z,19.83
2018-09-01T07:10:36.212Z,21.93
2018-09-01T07:13:06.661Z,20.73
2018-09-01T07:15:36.874Z,22.40
2018-09-01T07:18:06.967Z,22.50
2018-09-01T07:20:36.342Z,19.70
2018-09-01T07:23:06.444Z,23.70
2018-09-01T07:25:36.265Z,22.00
2018-09-01T07:28:07.661Z,21.37
2018-09-01T07:30:38.971Z,21.50
2018-09-01T07:33:09.176Z,22.87
2018-09-01T07:35:44.231Z,23.57
2018-09-01T07:38:13.589Z,23.45
2018-09-01T07:40:43.999Z,23.00
2018-09-01T07:43:13.952Z,22.77
2018-09-01T07:45:43.875Z,27.93
2018-09-01T07:48:13.616Z,22.73
2018-09-01T07:50:43.394Z,27.15
2018-09-01T07:53:13.303Z,24.97
2018-09-01T07:55:43.241Z,21.55
2018-09-01T07:58:13.040Z,21.68
2018-09-01T08:00:42.740Z,23.97
2018-09-01T08:03:12.343Z,24.80
2018-09-01T08:05:42.144Z,21.73
2018-09-01T08:08:12.115Z,22.37
2018-09-01T08:10:42.500Z,23.67
2018-09-01T08:13:12.932Z,24.07
2018-09-01T08:15:43.354Z,22.03
2018-09-01T08:18:13.204Z,24.93
2018-09-01T08:20:42.336Z,23.57
2018-09-01T08:23:11.934Z,28.20
2018-09-01T08:25:41.813Z,22.05
2018-09-01T08:28:11.857Z,22.47
2018-09-01T08:30:41.134Z,19.48
2018-09-01T08:33:11.425Z,19.83
2018-09-01T08:35:40.661Z,22.20
2018-09-01T08:38:09.972Z,24.90
2018-09-01T08:40:38.941Z,20.80
2018-09-01T08:43:08.854Z,19.85
2018-09-01T08:45:37.933Z,21.05
2018-09-01T08:48:07.942Z,19.85
2018-09-01T08:50:37.458Z,21.45
2018-09-01T08:53:06.714Z,18.85
2018-09-01T08:55:37.867Z,23.27
2018-09-01T08:58:07.433Z,19.37
2018-09-01T09:00:36.797Z,17.77
2018-09-01T09:03:06.210Z,19.90
2018-09-01T09:05:36.159Z,19.40
2018-09-01T09:08:05.304Z,19.77
2018-09-01T09:10:35.288Z,19.40
2018-09-01T09:13:04.212Z,16.90
2018-09-01T09:15:33.653Z,17.60
2018-09-01T09:18:02.404Z,19.85
2018-09-01T09:20:31.853Z,18.12
2018-09-01T09:23:03.018Z,17.67
2018-09-01T09:25:32.441Z,17.23
2018-09-01T09:28:01.936Z,18.57
2018-09-01T09:30:31.470Z,16.60
2018-09-01T09:33:00.248Z,17.37
2018-09-01T09:35:35.658Z,17.67
2018-09-01T09:38:05.325Z,20.23
2018-09-01T09:40:34.557Z,17.30
2018-09-01T09:43:04.449Z,16.83
2018-09-01T09:45:34.145Z,17.70
2018-09-01T09:48:02.822Z,18.47
2018-09-01T09:50:32.058Z,17.90
2018-09-01T09:53:00.916Z,18.60
2018-09-01T09:55:30.325Z,18.53
2018-09-01T09:57:59.580Z,18.27
2018-09-01T10:00:35.193Z,17.70
2018-09-01T10:03:04.430Z,18.93
2018-09-01T10:05:33.758Z,19.70
2018-09-01T10:08:03.480Z,16.17
2018-09-01T10:10:33.640Z,17.63
2018-09-01T10:13:02.418Z,17.90
2018-09-01T10:15:32.474Z,17.17
2018-09-01T10:18:02.142Z,17.00
2018-09-01T10:20:32.444Z,18.10
2018-09-01T10:23:02.143Z,17.47
2018-09-01T10:25:32.044Z,18.83
2018-09-01T10:28:01.876Z,19.03
2018-09-01T10:30:31.296Z,16.67
2018-09-01T10:33:01.445Z,16.43
2018-09-01T10:35:37.308Z,23.33
2018-09-01T10:38:06.191Z,21.03
2018-09-01T10:40:41.977Z,19.47
2018-09-01T10:43:11.859Z,18.27
2018-09-01T10:45:42.194Z,18.43
2018-09-01T10:48:23.484Z,18.93
2018-09-01T10:50:53.663Z,18.67
2018-09-01T10:53:24.315Z,16.83
2018-09-01T10:55:54.757Z,18.37
2018-09-01T10:58:26.405Z,11.40
2018-09-01T11:01:03.119Z,17.87
2018-09-01T11:03:32.778Z,18.00
2018-09-01T11:06:06.046Z,11.83
2018-09-01T11:08:36.188Z,17.27
2018-09-01T11:11:10.478Z,17.90
2018-09-01T11:13:40.522Z,11.10
2018-09-01T11:16:11.516Z,17.62
2018-09-01T11:18:41.547Z,12.90
2018-09-01T11:21:11.441Z,17.15
2018-09-01T11:23:42.201Z,15.18
2018-09-01T11:26:12.510Z,11.12
2018-09-01T11:28:42.992Z,9.05
2018-09-01T11:31:14.080Z,17.45
2018-09-01T11:33:45.146Z,12.98
2018-09-01T11:36:15.221Z,15.93
2018-09-01T11:38:45.637Z,15.70
2018-09-01T11:41:19.477Z,16.07
2018-09-01T11:43:49.350Z,14.15
2018-09-01T11:46:19.112Z,14.15
2018-09-01T11:48:49.333Z,12.58
2018-09-01T11:51:20.357Z,14.63
2018-09-01T11:53:50.992Z,16.02
2018-09-01T11:56:21.508Z,9.55
2018-09-01T11:58:57.427Z,8.58
2018-09-01T12:01:28.093Z,12.25
2018-09-01T12:03:58.137Z,12.35
2018-09-01T12:06:28.276Z,11.05
2018-09-01T12:08:58.284Z,9.73
2018-09-01T12:11:27.496Z,10.05
2018-09-01T12:13:57.447Z,11.95
2018-09-01T12:16:27.776Z,10.78
2018-09-01T12:18:57.190Z,8.25
2018-09-01T12:21:27.279Z,8.48
2018-09-01T12:23:56.356Z,14.70
2018-09-01T12:26:26.326Z,8.23
2018-09-01T12:28:56.326Z,10.38
2018-09-01T12:31:26.529Z,8.35
2018-09-01T12:33:56.278Z,11.83
2018-09-01T12:36:27.440Z,10.43
2018-09-01T12:38:56.811Z,8.30
2018-09-01T12:41:27.653Z,7.97
2018-09-01T12:43:57.759Z,8.75
2018-09-01T12:46:28.105Z,7.15
2018-09-01T12:48:57.599Z,13.72
2018-09-01T12:51:28.059Z,7.58
2018-09-01T12:53:58.358Z,9.00
2018-09-01T12:56:30.242Z,6.20
2018-09-01T12:59:00.455Z,7.83
2018-09-01T13:01:30.786Z,7.00
2018-09-01T13:04:00.441Z,9.48
2018-09-01T13:06:31.395Z,5.87
2018-09-01T13:09:01.634Z,7.67
2018-09-01T13:11:32.023Z,5.08
2018-09-01T13:14:02.808Z,7.95
2018-09-01T13:16:33.124Z,5.53
2018-09-01T13:19:02.712Z,6.55
2018-09-01T13:21:32.851Z,5.80
2018-09-01T13:24:03.641Z,6.03
2018-09-01T13:26:33.845Z,5.80
2018-09-01T13:29:04.533Z,4.28
2018-09-01T13:31:35.087Z,6.92
2018-09-01T13:34:05.425Z,7.10
2018-09-01T13:36:35.836Z,5.33
2018-09-01T13:39:06.958Z,6.15
2018-09-01T13:41:36.711Z,4.60
2018-09-01T13:44:06.507Z,5.00
2018-09-01T13:46:36.998Z,5.85
2018-09-01T13:49:07.552Z,5.55
2018-09-01T13:51:37.139Z,8.03
2018-09-01T13:54:06.982Z,5.35
2018-09-01T13:56:36.653Z,5.00
2018-09-01T13:59:06.565Z,6.85
2018-09-01T14:01:48.105Z,5.83
2018-09-01T14:04:17.755Z,6.80
2018-09-01T14:06:47.823Z,8.30
2018-09-01T14:09:18.079Z,5.30
2018-09-01T14:11:52.637Z,5.17
2018-09-01T14:14:22.476Z,6.80
2018-09-01T14:16:52.724Z,6.90
2018-09-01T14:19:22.994Z,7.12
2018-09-01T14:21:52.697Z,7.05
2018-09-01T14:24:22.072Z,5.60
2018-09-01T14:26:52.447Z,6.80
2018-09-01T14:29:22.619Z,5.33
2018-09-01T14:31:52.304Z,5.97
2018-09-01T14:34:22.641Z,4.83
2018-09-01T14:36:52.672Z,9.03
2018-09-01T14:39:22.507Z,8.43
2018-09-01T14:41:53.211Z,5.25
2018-09-01T14:44:23.337Z,7.20
2018-09-01T14:46:52.860Z,8.48
2018-09-01T14:49:23.238Z,4.70
2018-09-01T14:51:53.905Z,6.53
2018-09-01T14:54:24.569Z,4.67
2018-09-01T14:56:54.337Z,9.60
2018-09-01T14:59:24.614Z,4.25
2018-09-01T15:01:54.432Z,4.60
2018-09-01T15:04:24.540Z,5.85
2018-09-01T15:06:55.512Z,5.67
2018-09-01T15:09:28.093Z,5.72
2018-09-01T15:11:58.260Z,5.33
2018-09-01T15:14:28.940Z,5.15
2018-09-01T15:16:58.549Z,5.78
2018-09-01T15:19:28.404Z,15.68
2018-09-01T15:21:59.045Z,8.48
2018-09-01T15:24:29.532Z,6.45
2018-09-01T15:26:59.001Z,7.47
2018-09-01T15:29:28.268Z,6.50
2018-09-01T15:31:58.526Z,6.85
2018-09-01T15:34:28.224Z,5.10
2018-09-01T15:36:57.998Z,6.40
2018-09-01T15:39:27.695Z,8.48
2018-09-01T15:41:57.252Z,7.30
2018-09-01T15:44:26.883Z,6.05
2018-09-01T15:46:58.442Z,6.08
2018-09-01T15:49:29.669Z,6.80
2018-09-01T15:52:00.833Z,6.50
2018-09-01T15:54:30.687Z,6.10
2018-09-01T15:57:00.951Z,6.83
2018-09-01T15:59:30.884Z,5.92
2018-09-01T16:02:00.373Z,7.07
2018-09-01T16:04:30.201Z,6.12
2018-09-01T16:06:59.864Z,8.77
2018-09-01T16:09:29.630Z,7.87
2018-09-01T16:11:58.761Z,8.43
2018-09-01T16:14:28.673Z,6.50
2018-09-01T16:16:58.493Z,6.75
2018-09-01T16:19:28.062Z,6.70
2018-09-01T16:21:57.916Z,6.22
2018-09-01T16:24:29.209Z,6.67
2018-09-01T16:26:59.589Z,7.90
2018-09-01T16:29:34.189Z,5.50
2018-09-01T16:32:05.334Z,5.90
2018-09-01T16:34:35.461Z,7.78
2018-09-01T16:37:05.034Z,5.45
2018-09-01T16:39:34.684Z,6.03
2018-09-01T16:42:03.908Z,9.13
2018-09-01T16:44:34.030Z,7.00
2018-09-01T16:47:03.628Z,6.92
2018-09-01T16:49:33.358Z,5.65
2018-09-01T16:52:03.371Z,6.90
2018-09-01T16:54:33.068Z,7.35
2018-09-01T16:57:04.417Z,5.60
2018-09-01T16:59:33.983Z,7.15
2018-09-01T17:02:03.618Z,6.00
2018-09-01T17:04:33.227Z,6.22
2018-09-01T17:07:03.149Z,6.30
2018-09-01T17:09:32.882Z,5.62
2018-09-01T17:12:03.888Z,6.17
2018-09-01T17:14:33.259Z,5.97
2018-09-01T17:17:05.496Z,6.05
2018-09-01T17:19:36.224Z,6.50
2018-09-01T17:22:08.654Z,5.40
2018-09-01T17:24:38.981Z,5.45
2018-09-01T17:27:10.428Z,6.97
2018-09-01T17:29:41.050Z,5.90
2018-09-01T17:32:18.933Z,5.45
2018-09-01T17:34:50.201Z,10.00
2018-09-01T17:37:23.598Z,5.27
2018-09-01T17:39:53.659Z,6.90
2018-09-01T17:42:23.270Z,6.05
2018-09-01T17:44:54.527Z,7.30
2018-09-01T17:47:26.542Z,9.60
2018-09-01T17:50:03.140Z,6.95
2018-09-01T17:52:33.140Z,6.33
2018-09-01T17:55:03.178Z,6.43
2018-09-01T17:57:33.089Z,8.17
2018-09-01T18:00:03.206Z,6.00
2018-09-01T18:02:33.175Z,9.00
2018-09-01T18:05:02.993Z,6.40
2018-09-01T18:07:32.833Z,6.87
2018-09-01T18:10:02.901Z,6.10
2018-09-01T18:12:32.699Z,5.60
2018-09-01T18:15:02.628Z,5.60
2018-09-01T18:17:31.821Z,5.10
2018-09-01T18:20:01.916Z,5.57
2018-09-01T18:22:31.906Z,5.63
2018-09-01T18:25:01.727Z,9.60
2018-09-01T18:27:31.547Z,7.83
2018-09-01T18:30:01.355Z,5.60
2018-09-01T18:32:31.757Z,5.63
2018-09-01T18:35:01.221Z,6.33
2018-09-01T18:37:31.962Z,6.17
2018-09-01T18:40:01.465Z,7.83
2018-09-01T18:42:32.402Z,6.70
2018-09-01T18:45:02.128Z,5.43
2018-09-01T18:47:32.593Z,9.00
2018-09-01T18:50:02.310Z,5.87
2018-09-01T18:52:32.984Z,7.37
2018-09-01T18:55:02.725Z,5.43
2018-09-01T18:57:32.741Z,5.83
2018-09-01T19:00:02.453Z,5.37
2018-09-01T19:02:33.336Z,6.53
2018-09-01T19:05:03.317Z,6.17
2018-09-01T19:07:33.572Z,5.27
2018-09-01T19:10:03.240Z,5.37
2018-09-01T19:12:33.041Z,6.40
2018-09-01T19:15:03.750Z,8.13
2018-09-01T19:17:33.620Z,8.20
2018-09-01T19:20:03.898Z,10.17
2018-09-01T19:22:34.830Z,6.97
2018-09-01T19:25:05.612Z,8.23
2018-09-01T19:27:35.852Z,9.13
2018-09-01T19:30:05.161Z,7.07
2018-09-01T19:32:36.359Z,7.30
2018-09-01T19:35:05.733Z,7.57
2018-09-01T19:37:39.079Z,7.77
2018-09-01T19:40:09.856Z,8.57
2018-09-01T19:42:39.902Z,7.97
2018-09-01T19:45:10.719Z,7.80
2018-09-01T19:47:40.635Z,8.57
2018-09-01T19:50:10.389Z,7.37
2018-09-01T19:52:40.105Z,7.83
2018-09-01T19:55:12.584Z,7.93
2018-09-01T19:57:43.003Z,7.57
2018-09-01T20:00:13.169Z,8.00
2018-09-01T20:02:42.585Z,8.47
2018-09-01T20:05:19.038Z,7.87
2018-09-01T20:07:49.113Z,8.23
2018-09-01T20:10:20.641Z,7.40
2018-09-01T20:12:50.394Z,9.50
2018-09-01T20:15:20.221Z,8.57
2018-09-01T20:17:50.794Z,8.87
2018-09-01T20:20:20.497Z,9.00
2018-09-01T20:22:50.502Z,8.70
2018-09-01T20:25:20.776Z,10.80
2018-09-01T20:27:50.178Z,8.07
2018-09-01T20:30:19.745Z,8.23
2018-09-01T20:32:50.879Z,8.73
2018-09-01T20:35:26.375Z,8.07
2018-09-01T20:37:55.883Z,8.10
2018-09-01T20:40:25.294Z,8.53
2018-09-01T20:42:55.903Z,8.37
2018-09-01T20:45:25.601Z,8.33
2018-09-01T20:47:57.538Z,8.47
2018-09-01T20:50:27.906Z,9.87
2018-09-01T20:52:57.346Z,8.90
2018-09-01T20:55:29.098Z,8.57
2018-09-01T20:57:58.622Z,9.67
2018-09-01T21:00:28.040Z,11.47
2018-09-01T21:02:57.135Z,9.17
2018-09-01T21:05:26.144Z,8.77
2018-09-01T21:07:55.643Z,9.23
2018-09-01T21:10:25.137Z,8.63
2018-09-01T21:12:54.789Z,8.83
2018-09-01T21:15:27.831Z,8.83
2018-09-01T21:17:57.188Z,9.20
2018-09-01T21:20:26.538Z,10.07
2018-09-01T21:22:56.467Z,9.77
2018-09-01T21:25:26.419Z,9.57
2018-09-01T21:27:56.305Z,8.87
2018-09-01T21:30:25.873Z,9.70
2018-09-01T21:32:55.424Z,8.83
2018-09-01T21:35:25.284Z,8.93
2018-09-01T21:37:54.701Z,9.97
2018-09-01T21:40:24.417Z,10.07
2018-09-01T21:42:53.703Z,8.73
2018-09-01T21:45:23.205Z,8.57
2018-09-01T21:47:53.130Z,8.20
2018-09-01T21:50:22.877Z,11.90
2018-09-01T21:52:52.247Z,9.70
2018-09-01T21:55:22.744Z,8.90
2018-09-01T21:57:52.092Z,9.77
2018-09-01T22:00:21.528Z,10.37
2018-09-01T22:02:53.740Z,9.40
2018-09-01T22:05:23.693Z,10.40
2018-09-01T22:07:52.988Z,10.00
2018-09-01T22:10:22.505Z,9.27
2018-09-01T22:12:52.083Z,11.80
2018-09-01T22:15:21.632Z,9.97
2018-09-01T22:17:50.920Z,10.37
2018-09-01T22:20:26.212Z,10.10
2018-09-01T22:22:55.168Z,9.07
2018-09-01T22:25:24.738Z,9.67
2018-09-01T22:27:53.697Z,9.63
2018-09-01T22:30:23.113Z,10.63
2018-09-01T22:32:52.313Z,12.43
2018-09-01T22:35:23.088Z,10.40
2018-09-01T22:37:52.737Z,10.00
2018-09-01T22:40:22.416Z,10.13
2018-09-01T22:42:51.956Z,9.93
2018-09-01T22:45:21.797Z,9.90
2018-09-01T22:47:51.681Z,9.47
2018-09-01T22:50:21.231Z,8.77
2018-09-01T22:52:50.497Z,10.03
2018-09-01T22:55:20.094Z,9.60
2018-09-01T22:57:49.683Z,9.37
2018-09-01T23:00:19.110Z,9.67
2018-09-01T23:02:48.630Z,11.63
2018-09-01T23:05:20.209Z,9.10
2018-09-01T23:07:49.875Z,9.27
2018-09-01T23:10:20.178Z,9.07
2018-09-01T23:12:50.688Z,9.83
2018-09-01T23:15:19.960Z,9.37
2018-09-01T23:17:49.393Z,10.53
2018-09-01T23:20:18.821Z,10.83
2018-09-01T23:22:48.586Z,10.03
2018-09-01T23:25:17.869Z,9.90
2018-09-01T23:27:47.656Z,10.17
2018-09-01T23:30:17.006Z,12.37
2018-09-01T23:32:45.888Z,9.70
2018-09-01T23:35:15.115Z,10.27
2018-09-01T23:37:44.345Z,10.43
2018-09-01T23:40:14.014Z,14.07
2018-09-01T23:42:43.173Z,12.73
2018-09-01T23:45:16.916Z,10.57
2018-09-01T23:47:46.345Z,10.43
2018-09-01T23:50:16.038Z,11.47
2018-09-01T23:52:45.454Z,9.37
2018-09-01T23:55:16.003Z,10.23
2018-09-01T23:57:45.123Z,10.77
